<?xml version="1.0" encoding="UTF-8"?>
<gpx version="1.1" creator="https://www.youtrack.es" xsi:schemaLocation="http://www.topografix.com/GPX/1/1 http://www.topografix.com/GPX/1/1/gpx.xsd http://www.garmin.com/xmlschemas/GpxExtensions/v3 http://www.garmin.com/xmlschemas/GpxExtensionsv3.xsd http://www.garmin.com/xmlschemas/TrackPointExtension/v1 http://www.garmin.com/xmlschemas/TrackPointExtensionv1.xsd" xmlns:gpxtpx="http://www.garmin.com/xmlschemas/TrackPointExtension/v1" xmlns:gpxx="http://www.garmin.com/xmlschemas/GpxExtensions/v3" xmlns:xsi="http://www.w3.org/2001/XMLSchema-instance">
  <metadata>
    <author>
      <name>Jose Luis Vela</name>
      <email id="joseluisvela7" domain="gmail.com"/>
    </author>
    <link href="https://www.youtrack.es">
      <text>YouTrack.es</text>
    </link>
    <time>2026-05-08T09:03:44Z</time>
  </metadata>
  <trk>
    <src>https://www.youtrack.es</src>
    <link href="https://www.youtrack.es/ruta/34694-de-ponferrada-a-laguna">
      <text>YouTrack.es</text>
    </link>
    <trkseg>
      <trkpt lat="42.704812" lon="-7.024818">
        <ele>1266.372861</ele>
        <time>2022-08-01T12:23:24.801Z</time>
      </trkpt>
      <trkpt lat="42.704866" lon="-7.024926">
        <ele>1266.372861</ele>
        <time>2022-08-01T12:23:30.851Z</time>
      </trkpt>
      <trkpt lat="42.704935" lon="-7.025019">
        <ele>1266.372861</ele>
        <time>2022-08-01T12:23:36.847Z</time>
      </trkpt>
      <trkpt lat="42.705010" lon="-7.025116">
        <ele>1266.372861</ele>
        <time>2022-08-01T12:23:43.844Z</time>
      </trkpt>
      <trkpt lat="42.705090" lon="-7.025206">
        <ele>1266.372861</ele>
        <time>2022-08-01T12:23:50.847Z</time>
      </trkpt>
      <trkpt lat="42.705162" lon="-7.025280">
        <ele>1266.372861</ele>
        <time>2022-08-01T12:23:56.849Z</time>
      </trkpt>
      <trkpt lat="42.705242" lon="-7.025364">
        <ele>1266.372861</ele>
        <time>2022-08-01T12:24:03.845Z</time>
      </trkpt>
      <trkpt lat="42.705328" lon="-7.025447">
        <ele>1266.372861</ele>
        <time>2022-08-01T12:24:10.856Z</time>
      </trkpt>
      <trkpt lat="42.705400" lon="-7.025526">
        <ele>1266.372861</ele>
        <time>2022-08-01T12:24:16.851Z</time>
      </trkpt>
      <trkpt lat="42.705478" lon="-7.025610">
        <ele>1266.372861</ele>
        <time>2022-08-01T12:24:23.852Z</time>
      </trkpt>
      <trkpt lat="42.705558" lon="-7.025684">
        <ele>1267.491796</ele>
        <time>2022-08-01T12:24:29.842Z</time>
      </trkpt>
      <trkpt lat="42.705631" lon="-7.025765">
        <ele>1268.710869</ele>
        <time>2022-08-01T12:24:35.852Z</time>
      </trkpt>
      <trkpt lat="42.705709" lon="-7.025861">
        <ele>1270.072033</ele>
        <time>2022-08-01T12:24:42.851Z</time>
      </trkpt>
      <trkpt lat="42.705780" lon="-7.025939">
        <ele>1271.253026</ele>
        <time>2022-08-01T12:24:49.845Z</time>
      </trkpt>
      <trkpt lat="42.705862" lon="-7.026013">
        <ele>1272.526473</ele>
        <time>2022-08-01T12:24:57.850Z</time>
      </trkpt>
      <trkpt lat="42.705935" lon="-7.026101">
        <ele>1273.788670</ele>
        <time>2022-08-01T12:25:05.848Z</time>
      </trkpt>
      <trkpt lat="42.706022" lon="-7.026178">
        <ele>1275.131870</ele>
        <time>2022-08-01T12:25:12.849Z</time>
      </trkpt>
      <trkpt lat="42.706096" lon="-7.026265">
        <ele>1276.397545</ele>
        <time>2022-08-01T12:25:18.854Z</time>
      </trkpt>
      <trkpt lat="42.706134" lon="-7.026379">
        <ele>1277.588102</ele>
        <time>2022-08-01T12:25:23.850Z</time>
      </trkpt>
      <trkpt lat="42.706127" lon="-7.026505">
        <ele>1278.789874</ele>
        <time>2022-08-01T12:25:28.854Z</time>
      </trkpt>
      <trkpt lat="42.706104" lon="-7.026636">
        <ele>1280.070849</ele>
        <time>2022-08-01T12:25:34.851Z</time>
      </trkpt>
      <trkpt lat="42.706079" lon="-7.026756">
        <ele>1281.257118</ele>
        <time>2022-08-01T12:25:40.855Z</time>
      </trkpt>
      <trkpt lat="42.706071" lon="-7.026881">
        <ele>1282.450461</ele>
        <time>2022-08-01T12:25:46.852Z</time>
      </trkpt>
      <trkpt lat="42.706081" lon="-7.027011">
        <ele>1283.693613</ele>
        <time>2022-08-01T12:25:52.846Z</time>
      </trkpt>
      <trkpt lat="42.706127" lon="-7.027134">
        <ele>1285.006218</ele>
        <time>2022-08-01T12:25:59.844Z</time>
      </trkpt>
      <trkpt lat="42.706163" lon="-7.027267">
        <ele>1286.354229</ele>
        <time>2022-08-01T12:26:06.850Z</time>
      </trkpt>
      <trkpt lat="42.706203" lon="-7.027388">
        <ele>1287.616113</ele>
        <time>2022-08-01T12:26:12.849Z</time>
      </trkpt>
      <trkpt lat="42.706239" lon="-7.027506">
        <ele>1288.831256</ele>
        <time>2022-08-01T12:26:18.847Z</time>
      </trkpt>
      <trkpt lat="42.706280" lon="-7.027638">
        <ele>1290.062797</ele>
        <time>2022-08-01T12:26:25.847Z</time>
      </trkpt>
      <trkpt lat="42.706319" lon="-7.027754">
        <ele>1290.982030</ele>
        <time>2022-08-01T12:26:31.845Z</time>
      </trkpt>
      <trkpt lat="42.706354" lon="-7.027875">
        <ele>1291.919077</ele>
        <time>2022-08-01T12:26:37.843Z</time>
      </trkpt>
      <trkpt lat="42.706399" lon="-7.027997">
        <ele>1292.902746</ele>
        <time>2022-08-01T12:26:43.847Z</time>
      </trkpt>
      <trkpt lat="42.706441" lon="-7.028129">
        <ele>1293.939278</ele>
        <time>2022-08-01T12:26:49.856Z</time>
      </trkpt>
      <trkpt lat="42.706486" lon="-7.028258">
        <ele>1294.968276</ele>
        <time>2022-08-01T12:26:55.851Z</time>
      </trkpt>
      <trkpt lat="42.706529" lon="-7.028375">
        <ele>1295.910945</ele>
        <time>2022-08-01T12:27:01.858Z</time>
      </trkpt>
      <trkpt lat="42.706578" lon="-7.028496">
        <ele>1296.906504</ele>
        <time>2022-08-01T12:27:07.845Z</time>
      </trkpt>
      <trkpt lat="42.706617" lon="-7.028632">
        <ele>1297.958498</ele>
        <time>2022-08-01T12:27:13.853Z</time>
      </trkpt>
      <trkpt lat="42.706676" lon="-7.028749">
        <ele>1298.981023</ele>
        <time>2022-08-01T12:27:19.846Z</time>
      </trkpt>
      <trkpt lat="42.706725" lon="-7.028867">
        <ele>1299.957704</ele>
        <time>2022-08-01T12:27:25.848Z</time>
      </trkpt>
      <trkpt lat="42.706777" lon="-7.028980">
        <ele>1300.918467</ele>
        <time>2022-08-01T12:27:31.853Z</time>
      </trkpt>
      <trkpt lat="42.706838" lon="-7.029086">
        <ele>1301.888652</ele>
        <time>2022-08-01T12:27:37.856Z</time>
      </trkpt>
      <trkpt lat="42.706893" lon="-7.029205">
        <ele>1302.901674</ele>
        <time>2022-08-01T12:27:43.842Z</time>
      </trkpt>
      <trkpt lat="42.706938" lon="-7.029329">
        <ele>1303.898237</ele>
        <time>2022-08-01T12:27:49.844Z</time>
      </trkpt>
      <trkpt lat="42.706990" lon="-7.029448">
        <ele>1304.895905</ele>
        <time>2022-08-01T12:27:55.850Z</time>
      </trkpt>
      <trkpt lat="42.707025" lon="-7.029563">
        <ele>1305.792853</ele>
        <time>2022-08-01T12:28:00.862Z</time>
      </trkpt>
      <trkpt lat="42.707054" lon="-7.029703">
        <ele>1306.841000</ele>
        <time>2022-08-01T12:28:06.852Z</time>
      </trkpt>
      <trkpt lat="42.707051" lon="-7.029838">
        <ele>1307.815053</ele>
        <time>2022-08-01T12:28:12.850Z</time>
      </trkpt>
      <trkpt lat="42.707004" lon="-7.029953">
        <ele>1308.764743</ele>
        <time>2022-08-01T12:28:18.858Z</time>
      </trkpt>
      <trkpt lat="42.706931" lon="-7.030048">
        <ele>1309.756763</ele>
        <time>2022-08-01T12:28:25.865Z</time>
      </trkpt>
      <trkpt lat="42.706852" lon="-7.030121">
        <ele>1310.694615</ele>
        <time>2022-08-01T12:28:32.860Z</time>
      </trkpt>
      <trkpt lat="42.706770" lon="-7.030202">
        <ele>1311.689766</ele>
        <time>2022-08-01T12:28:39.849Z</time>
      </trkpt>
      <trkpt lat="42.706687" lon="-7.030255">
        <ele>1312.590219</ele>
        <time>2022-08-01T12:28:45.851Z</time>
      </trkpt>
      <trkpt lat="42.706602" lon="-7.030301">
        <ele>1313.488624</ele>
        <time>2022-08-01T12:28:51.861Z</time>
      </trkpt>
      <trkpt lat="42.706521" lon="-7.030369">
        <ele>1314.423351</ele>
        <time>2022-08-01T12:28:58.945Z</time>
      </trkpt>
      <trkpt lat="42.706457" lon="-7.030456">
        <ele>1315.311798</ele>
        <time>2022-08-01T12:29:05.855Z</time>
      </trkpt>
      <trkpt lat="42.706410" lon="-7.030571">
        <ele>1316.261495</ele>
        <time>2022-08-01T12:29:12.851Z</time>
      </trkpt>
      <trkpt lat="42.706380" lon="-7.030694">
        <ele>1317.196820</ele>
        <time>2022-08-01T12:29:18.853Z</time>
      </trkpt>
      <trkpt lat="42.706379" lon="-7.030823">
        <ele>1318.127879</ele>
        <time>2022-08-01T12:29:24.859Z</time>
      </trkpt>
      <trkpt lat="42.706376" lon="-7.030953">
        <ele>1319.066567</ele>
        <time>2022-08-01T12:29:30.849Z</time>
      </trkpt>
      <trkpt lat="42.706405" lon="-7.031072">
        <ele>1319.971399</ele>
        <time>2022-08-01T12:29:36.855Z</time>
      </trkpt>
      <trkpt lat="42.706437" lon="-7.031194">
        <ele>1320.906296</ele>
        <time>2022-08-01T12:29:42.849Z</time>
      </trkpt>
      <trkpt lat="42.706483" lon="-7.031310">
        <ele>1321.857603</ele>
        <time>2022-08-01T12:29:48.857Z</time>
      </trkpt>
      <trkpt lat="42.706533" lon="-7.031423">
        <ele>1322.809569</ele>
        <time>2022-08-01T12:29:54.855Z</time>
      </trkpt>
      <trkpt lat="42.706590" lon="-7.031528">
        <ele>1323.751720</ele>
        <time>2022-08-01T12:30:00.852Z</time>
      </trkpt>
      <trkpt lat="42.706654" lon="-7.031630">
        <ele>1324.719709</ele>
        <time>2022-08-01T12:30:06.854Z</time>
      </trkpt>
      <trkpt lat="42.706728" lon="-7.031725">
        <ele>1325.664959</ele>
        <time>2022-08-01T12:30:12.847Z</time>
      </trkpt>
      <trkpt lat="42.706794" lon="-7.031815">
        <ele>1326.517866</ele>
        <time>2022-08-01T12:30:18.856Z</time>
      </trkpt>
      <trkpt lat="42.706873" lon="-7.031891">
        <ele>1327.401015</ele>
        <time>2022-08-01T12:30:24.842Z</time>
      </trkpt>
      <trkpt lat="42.706939" lon="-7.031989">
        <ele>1328.292711</ele>
        <time>2022-08-01T12:30:30.848Z</time>
      </trkpt>
      <trkpt lat="42.707012" lon="-7.032069">
        <ele>1329.148300</ele>
        <time>2022-08-01T12:30:36.857Z</time>
      </trkpt>
      <trkpt lat="42.707098" lon="-7.032133">
        <ele>1330.043065</ele>
        <time>2022-08-01T12:30:43.847Z</time>
      </trkpt>
      <trkpt lat="42.707178" lon="-7.032196">
        <ele>1330.886802</ele>
        <time>2022-08-01T12:30:49.847Z</time>
      </trkpt>
      <trkpt lat="42.707274" lon="-7.032235">
        <ele>1331.801350</ele>
        <time>2022-08-01T12:30:56.850Z</time>
      </trkpt>
      <trkpt lat="42.707360" lon="-7.032291">
        <ele>1332.671641</ele>
        <time>2022-08-01T12:31:02.850Z</time>
      </trkpt>
      <trkpt lat="42.707447" lon="-7.032358">
        <ele>1333.584165</ele>
        <time>2022-08-01T12:31:08.841Z</time>
      </trkpt>
      <trkpt lat="42.707529" lon="-7.032421">
        <ele>1334.443751</ele>
        <time>2022-08-01T12:31:14.860Z</time>
      </trkpt>
      <trkpt lat="42.707608" lon="-7.032504">
        <ele>1335.354809</ele>
        <time>2022-08-01T12:31:20.862Z</time>
      </trkpt>
      <trkpt lat="42.707685" lon="-7.032598">
        <ele>1336.299072</ele>
        <time>2022-08-01T12:31:26.854Z</time>
      </trkpt>
      <trkpt lat="42.707753" lon="-7.032689">
        <ele>1337.169654</ele>
        <time>2022-08-01T12:31:32.856Z</time>
      </trkpt>
      <trkpt lat="42.707823" lon="-7.032791">
        <ele>1338.105836</ele>
        <time>2022-08-01T12:31:38.850Z</time>
      </trkpt>
      <trkpt lat="42.707880" lon="-7.032902">
        <ele>1339.014194</ele>
        <time>2022-08-01T12:31:44.850Z</time>
      </trkpt>
      <trkpt lat="42.707946" lon="-7.033012">
        <ele>1339.966776</ele>
        <time>2022-08-01T12:31:50.852Z</time>
      </trkpt>
      <trkpt lat="42.707995" lon="-7.033126">
        <ele>1340.852677</ele>
        <time>2022-08-01T12:31:56.859Z</time>
      </trkpt>
      <trkpt lat="42.708057" lon="-7.033235">
        <ele>1341.871908</ele>
        <time>2022-08-01T12:32:02.853Z</time>
      </trkpt>
      <trkpt lat="42.708100" lon="-7.033344">
        <ele>1342.896381</ele>
        <time>2022-08-01T12:32:08.850Z</time>
      </trkpt>
      <trkpt lat="42.708162" lon="-7.033447">
        <ele>1343.998961</ele>
        <time>2022-08-01T12:32:15.857Z</time>
      </trkpt>
      <trkpt lat="42.708216" lon="-7.033568">
        <ele>1345.171272</ele>
        <time>2022-08-01T12:32:21.845Z</time>
      </trkpt>
      <trkpt lat="42.708265" lon="-7.033685">
        <ele>1346.286452</ele>
        <time>2022-08-01T12:32:27.845Z</time>
      </trkpt>
      <trkpt lat="42.708300" lon="-7.033803">
        <ele>1347.340202</ele>
        <time>2022-08-01T12:32:33.859Z</time>
      </trkpt>
      <trkpt lat="42.708341" lon="-7.033918">
        <ele>1348.398676</ele>
        <time>2022-08-01T12:32:39.859Z</time>
      </trkpt>
      <trkpt lat="42.708364" lon="-7.034042">
        <ele>1349.457715</ele>
        <time>2022-08-01T12:32:45.853Z</time>
      </trkpt>
      <trkpt lat="42.708397" lon="-7.034161">
        <ele>1350.510980</ele>
        <time>2022-08-01T12:32:51.857Z</time>
      </trkpt>
      <trkpt lat="42.708414" lon="-7.034295">
        <ele>1351.637036</ele>
        <time>2022-08-01T12:32:57.878Z</time>
      </trkpt>
      <trkpt lat="42.708438" lon="-7.034427">
        <ele>1352.763078</ele>
        <time>2022-08-01T12:33:03.855Z</time>
      </trkpt>
      <trkpt lat="42.708456" lon="-7.034552">
        <ele>1353.817877</ele>
        <time>2022-08-01T12:33:09.860Z</time>
      </trkpt>
      <trkpt lat="42.708473" lon="-7.034688">
        <ele>1354.960256</ele>
        <time>2022-08-01T12:33:16.848Z</time>
      </trkpt>
      <trkpt lat="42.708514" lon="-7.034818">
        <ele>1356.131737</ele>
        <time>2022-08-01T12:33:23.853Z</time>
      </trkpt>
      <trkpt lat="42.708552" lon="-7.034932">
        <ele>1357.168346</ele>
        <time>2022-08-01T12:33:29.853Z</time>
      </trkpt>
      <trkpt lat="42.708595" lon="-7.035043">
        <ele>1358.207435</ele>
        <time>2022-08-01T12:33:35.844Z</time>
      </trkpt>
      <trkpt lat="42.708635" lon="-7.035163">
        <ele>1359.298601</ele>
        <time>2022-08-01T12:33:41.863Z</time>
      </trkpt>
      <trkpt lat="42.708656" lon="-7.035292">
        <ele>1360.392732</ele>
        <time>2022-08-01T12:33:47.858Z</time>
      </trkpt>
      <trkpt lat="42.708666" lon="-7.035424">
        <ele>1361.491600</ele>
        <time>2022-08-01T12:33:53.879Z</time>
      </trkpt>
      <trkpt lat="42.708683" lon="-7.035556">
        <ele>1362.215043</ele>
        <time>2022-08-01T12:33:59.846Z</time>
      </trkpt>
      <trkpt lat="42.708675" lon="-7.035691">
        <ele>1362.884343</ele>
        <time>2022-08-01T12:34:05.851Z</time>
      </trkpt>
      <trkpt lat="42.708683" lon="-7.035824">
        <ele>1363.543791</ele>
        <time>2022-08-01T12:34:11.859Z</time>
      </trkpt>
      <trkpt lat="42.708675" lon="-7.035958">
        <ele>1364.208165</ele>
        <time>2022-08-01T12:34:18.857Z</time>
      </trkpt>
      <trkpt lat="42.708693" lon="-7.036090">
        <ele>1364.871610</ele>
        <time>2022-08-01T12:34:25.927Z</time>
      </trkpt>
      <trkpt lat="42.708703" lon="-7.036223">
        <ele>1365.532292</ele>
        <time>2022-08-01T12:34:32.860Z</time>
      </trkpt>
      <trkpt lat="42.708733" lon="-7.036359">
        <ele>1366.233997</ele>
        <time>2022-08-01T12:34:39.850Z</time>
      </trkpt>
      <trkpt lat="42.708764" lon="-7.036484">
        <ele>1366.885945</ele>
        <time>2022-08-01T12:34:45.846Z</time>
      </trkpt>
      <trkpt lat="42.708801" lon="-7.036600">
        <ele>1367.510862</ele>
        <time>2022-08-01T12:34:51.848Z</time>
      </trkpt>
      <trkpt lat="42.708856" lon="-7.036710">
        <ele>1368.168359</ele>
        <time>2022-08-01T12:34:58.860Z</time>
      </trkpt>
      <trkpt lat="42.708849" lon="-7.036834">
        <ele>1368.782938</ele>
        <time>2022-08-01T12:35:03.861Z</time>
      </trkpt>
      <trkpt lat="42.708850" lon="-7.036957">
        <ele>1369.390806</ele>
        <time>2022-08-01T12:35:08.843Z</time>
      </trkpt>
      <trkpt lat="42.708851" lon="-7.037081">
        <ele>1370.003616</ele>
        <time>2022-08-01T12:35:13.852Z</time>
      </trkpt>
      <trkpt lat="42.708857" lon="-7.037220">
        <ele>1370.691698</ele>
        <time>2022-08-01T12:35:19.850Z</time>
      </trkpt>
      <trkpt lat="42.708852" lon="-7.037363">
        <ele>1371.399163</ele>
        <time>2022-08-01T12:35:25.848Z</time>
      </trkpt>
      <trkpt lat="42.708837" lon="-7.037487">
        <ele>1372.020184</ele>
        <time>2022-08-01T12:35:29.852Z</time>
      </trkpt>
      <trkpt lat="42.708828" lon="-7.037623">
        <ele>1372.694978</ele>
        <time>2022-08-01T12:35:33.854Z</time>
      </trkpt>
      <trkpt lat="42.708810" lon="-7.037755">
        <ele>1373.358422</ele>
        <time>2022-08-01T12:35:37.852Z</time>
      </trkpt>
      <trkpt lat="42.708793" lon="-7.037882">
        <ele>1373.733806</ele>
        <time>2022-08-01T12:35:41.860Z</time>
      </trkpt>
      <trkpt lat="42.708777" lon="-7.038006">
        <ele>1373.719959</ele>
        <time>2022-08-01T12:35:45.858Z</time>
      </trkpt>
      <trkpt lat="42.708752" lon="-7.038148">
        <ele>1373.703898</ele>
        <time>2022-08-01T12:35:49.853Z</time>
      </trkpt>
      <trkpt lat="42.708722" lon="-7.038286">
        <ele>1373.688069</ele>
        <time>2022-08-01T12:35:52.855Z</time>
      </trkpt>
      <trkpt lat="42.708691" lon="-7.038450">
        <ele>1373.669444</ele>
        <time>2022-08-01T12:35:55.850Z</time>
      </trkpt>
      <trkpt lat="42.708658" lon="-7.038623">
        <ele>1373.649785</ele>
        <time>2022-08-01T12:35:58.844Z</time>
      </trkpt>
      <trkpt lat="42.708635" lon="-7.038746">
        <ele>1373.635825</ele>
        <time>2022-08-01T12:36:00.858Z</time>
      </trkpt>
      <trkpt lat="42.708616" lon="-7.038869">
        <ele>1373.622000</ele>
        <time>2022-08-01T12:36:02.854Z</time>
      </trkpt>
      <trkpt lat="42.708586" lon="-7.039047">
        <ele>1373.601914</ele>
        <time>2022-08-01T12:36:05.928Z</time>
      </trkpt>
      <trkpt lat="42.708560" lon="-7.039167">
        <ele>1373.588153</ele>
        <time>2022-08-01T12:36:07.860Z</time>
      </trkpt>
      <trkpt lat="42.708537" lon="-7.039285">
        <ele>1373.574726</ele>
        <time>2022-08-01T12:36:09.856Z</time>
      </trkpt>
      <trkpt lat="42.708518" lon="-7.039406">
        <ele>1373.561116</ele>
        <time>2022-08-01T12:36:11.907Z</time>
      </trkpt>
      <trkpt lat="42.708485" lon="-7.039577">
        <ele>1373.541670</ele>
        <time>2022-08-01T12:36:14.856Z</time>
      </trkpt>
      <trkpt lat="42.708443" lon="-7.039737">
        <ele>1373.522983</ele>
        <time>2022-08-01T12:36:17.879Z</time>
      </trkpt>
      <trkpt lat="42.708408" lon="-7.039887">
        <ele>1373.505672</ele>
        <time>2022-08-01T12:36:20.863Z</time>
      </trkpt>
      <trkpt lat="42.708368" lon="-7.040014">
        <ele>1373.490474</ele>
        <time>2022-08-01T12:36:23.894Z</time>
      </trkpt>
      <trkpt lat="42.708323" lon="-7.040127">
        <ele>1373.476338</ele>
        <time>2022-08-01T12:36:26.852Z</time>
      </trkpt>
      <trkpt lat="42.708281" lon="-7.040237">
        <ele>1373.164735</ele>
        <time>2022-08-01T12:36:29.851Z</time>
      </trkpt>
      <trkpt lat="42.708223" lon="-7.040372">
        <ele>1372.472378</ele>
        <time>2022-08-01T12:36:33.857Z</time>
      </trkpt>
      <trkpt lat="42.708182" lon="-7.040498">
        <ele>1371.862281</ele>
        <time>2022-08-01T12:36:36.859Z</time>
      </trkpt>
      <trkpt lat="42.708148" lon="-7.040678">
        <ele>1371.039447</ele>
        <time>2022-08-01T12:36:39.857Z</time>
      </trkpt>
      <trkpt lat="42.708129" lon="-7.040819">
        <ele>1370.404778</ele>
        <time>2022-08-01T12:36:41.858Z</time>
      </trkpt>
      <trkpt lat="42.708114" lon="-7.040982">
        <ele>1369.677479</ele>
        <time>2022-08-01T12:36:43.855Z</time>
      </trkpt>
      <trkpt lat="42.708099" lon="-7.041159">
        <ele>1368.888640</ele>
        <time>2022-08-01T12:36:45.851Z</time>
      </trkpt>
      <trkpt lat="42.708072" lon="-7.041358">
        <ele>1367.992700</ele>
        <time>2022-08-01T12:36:47.848Z</time>
      </trkpt>
      <trkpt lat="42.708033" lon="-7.041553">
        <ele>1367.097955</ele>
        <time>2022-08-01T12:36:49.861Z</time>
      </trkpt>
      <trkpt lat="42.707990" lon="-7.041738">
        <ele>1366.238891</ele>
        <time>2022-08-01T12:36:51.858Z</time>
      </trkpt>
      <trkpt lat="42.707955" lon="-7.041899">
        <ele>1365.495543</ele>
        <time>2022-08-01T12:36:53.848Z</time>
      </trkpt>
      <trkpt lat="42.707923" lon="-7.042040">
        <ele>1364.842186</ele>
        <time>2022-08-01T12:36:55.849Z</time>
      </trkpt>
      <trkpt lat="42.707921" lon="-7.042171">
        <ele>1364.262073</ele>
        <time>2022-08-01T12:36:57.863Z</time>
      </trkpt>
      <trkpt lat="42.707931" lon="-7.042302">
        <ele>1363.678965</ele>
        <time>2022-08-01T12:37:00.849Z</time>
      </trkpt>
      <trkpt lat="42.707845" lon="-7.042350">
        <ele>1363.118917</ele>
        <time>2022-08-01T12:37:05.908Z</time>
      </trkpt>
      <trkpt lat="42.707761" lon="-7.042300">
        <ele>1362.633247</ele>
        <time>2022-08-01T12:37:10.857Z</time>
      </trkpt>
      <trkpt lat="42.707711" lon="-7.042415">
        <ele>1362.633247</ele>
        <time>2022-08-01T12:37:13.856Z</time>
      </trkpt>
      <trkpt lat="42.707668" lon="-7.042535">
        <ele>1362.633247</ele>
        <time>2022-08-01T12:37:15.859Z</time>
      </trkpt>
      <trkpt lat="42.707616" lon="-7.042666">
        <ele>1362.633247</ele>
        <time>2022-08-01T12:37:17.857Z</time>
      </trkpt>
      <trkpt lat="42.707559" lon="-7.042800">
        <ele>1362.633247</ele>
        <time>2022-08-01T12:37:19.852Z</time>
      </trkpt>
      <trkpt lat="42.707503" lon="-7.042947">
        <ele>1362.633247</ele>
        <time>2022-08-01T12:37:21.863Z</time>
      </trkpt>
      <trkpt lat="42.707469" lon="-7.043122">
        <ele>1362.633247</ele>
        <time>2022-08-01T12:37:23.866Z</time>
      </trkpt>
      <trkpt lat="42.707467" lon="-7.043310">
        <ele>1362.633247</ele>
        <time>2022-08-01T12:37:25.864Z</time>
      </trkpt>
      <trkpt lat="42.707466" lon="-7.043453">
        <ele>1362.633247</ele>
        <time>2022-08-01T12:37:27.862Z</time>
      </trkpt>
      <trkpt lat="42.707527" lon="-7.043356">
        <ele>1362.633247</ele>
        <time>2022-08-01T12:37:37.858Z</time>
      </trkpt>
      <trkpt lat="42.707603" lon="-7.043439">
        <ele>1362.633247</ele>
        <time>2022-08-01T12:37:43.864Z</time>
      </trkpt>
      <trkpt lat="42.707663" lon="-7.043554">
        <ele>1362.633247</ele>
        <time>2022-08-01T12:37:49.853Z</time>
      </trkpt>
      <trkpt lat="42.707731" lon="-7.043662">
        <ele>1362.633247</ele>
        <time>2022-08-01T12:37:56.851Z</time>
      </trkpt>
      <trkpt lat="42.707822" lon="-7.043720">
        <ele>1362.633247</ele>
        <time>2022-08-01T12:38:02.857Z</time>
      </trkpt>
      <trkpt lat="42.707780" lon="-7.043710">
        <ele>1362.633247</ele>
        <time>2022-08-01T12:39:27.554Z</time>
      </trkpt>
    </trkseg>
  </trk>
</gpx>
